createdAt,value
2018-07-28T00:00:12.919Z,41.5
2018-07-28T00:02:05.426Z,41.5
2018-07-28T00:04:05.080Z,40.7
2018-07-28T00:06:05.795Z,40.6
2018-07-28T00:08:05.451Z,39.9
2018-07-28T00:10:05.110Z,39.8
2018-07-28T00:12:05.293Z,39.8
2018-07-28T00:14:05.053Z,40
2018-07-28T00:16:05.744Z,39.9
2018-07-28T00:18:05.713Z,40
2018-07-28T00:20:06.083Z,39.9
2018-07-28T00:22:05.765Z,39.3
2018-07-28T00:24:05.419Z,39.8
2018-07-28T00:26:05.200Z,39.4
2018-07-28T00:28:05.883Z,39.6
2018-07-28T00:30:05.571Z,39.9
2018-07-28T00:32:13.448Z,39.8
2018-07-28T00:34:05.608Z,39.6
2018-07-28T00:36:05.262Z,39.5
2018-07-28T00:38:08.454Z,39.6
2018-07-28T00:40:06.306Z,39.6
2018-07-28T00:42:07.905Z,40.1
2018-07-28T00:44:10.637Z,40.1
2018-07-28T00:46:05.297Z,40.1
2018-07-28T00:48:05.067Z,39.9
2018-07-28T00:50:05.767Z,40
2018-07-28T00:52:07.999Z,40.6
2018-07-28T00:54:05.698Z,40.3
2018-07-28T00:56:05.919Z,40.6
2018-07-28T00:58:05.137Z,40.8
2018-07-28T01:00:10.899Z,40.6
2018-07-28T01:02:05.554Z,40.6
2018-07-28T01:04:05.264Z,40.8
2018-07-28T01:06:11.014Z,40.9
2018-07-28T01:08:05.703Z,40.8
2018-07-28T01:10:10.961Z,41
2018-07-28T01:12:05.848Z,41
2018-07-28T01:14:07.624Z,41.2
2018-07-28T01:16:05.843Z,41.2
2018-07-28T01:18:05.732Z,41.3
2018-07-28T01:20:05.439Z,41.5
2018-07-28T01:22:12.878Z,41.6
2018-07-28T01:24:05.596Z,41.5
2018-07-28T01:26:05.291Z,41.6
2018-07-28T01:28:06.007Z,41.7
2018-07-28T01:30:15.815Z,41.6
2018-07-28T01:32:10.573Z,41.5
2018-07-28T01:34:05.307Z,41.3
2018-07-28T01:36:06.039Z,41.6
2018-07-28T01:38:05.758Z,41.7
2018-07-28T01:40:05.010Z,41.7
2018-07-28T01:42:13.262Z,42
2018-07-28T01:44:05.937Z,41.8
2018-07-28T01:46:05.665Z,41.1
2018-07-28T01:48:05.435Z,41.4
2018-07-28T01:50:05.111Z,41.7
2018-07-28T01:52:05.825Z,41.7
2018-07-28T01:54:05.646Z,41.9
2018-07-28T01:56:10.381Z,42.5
2018-07-28T01:58:05.623Z,42.5
2018-07-28T02:00:07.905Z,42.8
2018-07-28T02:02:05.596Z,42.8
2018-07-28T02:04:05.893Z,43.1
2018-07-28T02:06:08.176Z,43.3
2018-07-28T02:08:05.931Z,43.3
2018-07-28T02:10:05.624Z,43.3
2018-07-28T02:12:05.307Z,43.8
2018-07-28T02:14:06.027Z,43.8
2018-07-28T02:16:05.399Z,43.9
2018-07-28T02:18:05.326Z,44.1
2018-07-28T02:20:05.584Z,43.8
2018-07-28T02:22:05.364Z,44.2
2018-07-28T02:24:05.475Z,44.5
2018-07-28T02:26:12.713Z,44.5
2018-07-28T02:28:05.361Z,44.5
2018-07-28T02:30:05.122Z,44.6
2018-07-28T02:32:05.840Z,44.6
2018-07-28T02:34:05.543Z,44.6
2018-07-28T02:36:05.293Z,44.9
2018-07-28T02:38:05.486Z,44.9
2018-07-28T02:40:05.244Z,44.6
2018-07-28T02:42:05.983Z,44.9
2018-07-28T02:44:05.687Z,44.9
2018-07-28T02:46:07.879Z,44.9
2018-07-28T02:48:05.549Z,45.1
2018-07-28T02:50:05.262Z,45.1
2018-07-28T02:52:08.128Z,45
2018-07-28T02:54:05.984Z,44.8
2018-07-28T02:56:05.673Z,45.1
2018-07-28T02:58:07.883Z,45.2
2018-07-28T03:00:05.736Z,45.2
2018-07-28T03:02:05.577Z,45
2018-07-28T03:04:05.306Z,45.2
2018-07-28T03:06:06.034Z,45.2
2018-07-28T03:08:05.746Z,45.2
2018-07-28T03:10:05.467Z,45.2
2018-07-28T03:12:10.857Z,45.2
2018-07-28T03:14:05.622Z,45.2
2018-07-28T03:16:10.353Z,45.2
2018-07-28T03:18:05.252Z,45.2
2018-07-28T03:20:05.466Z,45.2
2018-07-28T03:22:05.140Z,45.2
2018-07-28T03:24:05.885Z,45
2018-07-28T03:26:05.641Z,45
2018-07-28T03:28:05.330Z,45
2018-07-28T03:30:05.255Z,45.2
2018-07-28T03:32:05.931Z,45.2
2018-07-28T03:34:05.623Z,45.2
2018-07-28T03:36:07.859Z,45.2
2018-07-28T03:38:08.129Z,45.2
2018-07-28T03:40:05.817Z,45.2
2018-07-28T03:42:05.646Z,45.2
2018-07-28T03:44:05.515Z,45.2
2018-07-28T03:46:10.254Z,45.3
2018-07-28T03:48:07.684Z,45.2
2018-07-28T03:50:05.386Z,45.2
2018-07-28T03:52:05.152Z,45.2
2018-07-28T03:54:05.892Z,45.1
2018-07-28T03:56:05.639Z,45.1
2018-07-28T03:58:05.311Z,45.3
2018-07-28T04:00:18.743Z,45.2
2018-07-28T04:02:05.428Z,45.2
2018-07-28T04:04:05.115Z,45.2
2018-07-28T04:06:10.936Z,45.3
2018-07-28T04:08:07.782Z,45.3
2018-07-28T04:10:05.487Z,45.4
2018-07-28T04:12:15.317Z,45.6
2018-07-28T04:14:05.534Z,45.7
2018-07-28T04:16:05.308Z,45.6
2018-07-28T04:18:05.173Z,45.5
2018-07-28T04:20:05.821Z,45.4
2018-07-28T04:22:05.455Z,45.5
2018-07-28T04:24:05.103Z,45.7
2018-07-28T04:26:05.808Z,45.5
2018-07-28T04:28:05.463Z,45.4
2018-07-28T04:30:08.643Z,45.5
2018-07-28T04:32:06.101Z,45.7
2018-07-28T04:34:05.812Z,45.9
2018-07-28T04:36:05.504Z,45.8
2018-07-28T04:38:07.712Z,46.4
2018-07-28T04:40:05.396Z,46.4
2018-07-28T04:42:05.169Z,46.5
2018-07-28T04:44:06.083Z,47.1
2018-07-28T04:46:05.376Z,47.4
2018-07-28T04:48:05.094Z,48
2018-07-28T04:50:05.436Z,48
2018-07-28T04:52:05.212Z,48.5
2018-07-28T04:54:05.899Z,48.9
2018-07-28T04:56:05.668Z,49
2018-07-28T04:58:07.874Z,49.5
2018-07-28T05:00:08.121Z,49.6
2018-07-28T05:02:05.802Z,49.6
2018-07-28T05:04:05.524Z,49.6
2018-07-28T05:06:05.241Z,49.8
2018-07-28T05:08:06.044Z,50
2018-07-28T05:10:05.759Z,49.9
2018-07-28T05:12:05.484Z,50.1
2018-07-28T05:14:05.178Z,50
2018-07-28T05:16:06.137Z,49.6
2018-07-28T05:18:10.179Z,49.1
2018-07-28T05:20:05.919Z,49.2
2018-07-28T05:22:13.192Z,49
2018-07-28T05:24:08.400Z,48.8
2018-07-28T05:26:07.684Z,48.9
2018-07-28T05:28:05.396Z,48.9
2018-07-28T05:30:05.068Z,49.4
2018-07-28T05:32:05.744Z,49.7
2018-07-28T05:34:10.547Z,50
2018-07-28T05:36:05.264Z,49.8
2018-07-28T05:38:05.498Z,50
2018-07-28T05:40:05.190Z,50.1
2018-07-28T05:42:05.910Z,50
2018-07-28T05:44:07.677Z,49.6
2018-07-28T05:46:05.408Z,49.6
2018-07-28T05:48:05.662Z,49.6
2018-07-28T05:50:08.017Z,49.6
2018-07-28T05:52:05.963Z,49.5
2018-07-28T05:54:05.659Z,49.6
2018-07-28T05:56:05.323Z,49.9
2018-07-28T05:58:05.038Z,50.2
2018-07-28T06:00:05.828Z,49.9
2018-07-28T06:02:05.547Z,50
2018-07-28T06:04:05.559Z,50
2018-07-28T06:06:07.803Z,50
2018-07-28T06:08:05.604Z,50
2018-07-28T06:10:05.293Z,50
2018-07-28T06:12:05.550Z,50.1
2018-07-28T06:14:08.379Z,50.1
2018-07-28T06:16:05.937Z,50.1
2018-07-28T06:18:08.566Z,50
2018-07-28T06:20:05.267Z,49.9
2018-07-28T06:22:06.102Z,49.9
2018-07-28T06:24:07.659Z,49.8
2018-07-28T06:26:06.091Z,49.8
2018-07-28T06:28:05.356Z,49.3
2018-07-28T06:34:13.828Z,49.3
2018-07-28T06:36:05.569Z,49.4
2018-07-28T06:38:07.802Z,49.9
2018-07-28T06:40:05.577Z,49.9
2018-07-28T06:42:07.860Z,49.7
2018-07-28T06:44:05.562Z,49.7
2018-07-28T06:46:07.767Z,50
2018-07-28T06:48:05.462Z,50
2018-07-28T06:50:10.228Z,49.8
2018-07-28T06:52:05.445Z,49.6
2018-07-28T06:54:05.227Z,49.8
2018-07-28T06:56:08.476Z,49.8
2018-07-28T06:58:05.155Z,49.8
2018-07-28T07:00:05.940Z,49.4
2018-07-28T07:02:05.628Z,49.2
2018-07-28T07:04:05.781Z,49.5
2018-07-28T07:06:05.478Z,49.6
2018-07-28T07:08:05.151Z,49.6
2018-07-28T07:10:05.802Z,49.6
2018-07-28T07:12:06.031Z,49.2
2018-07-28T07:14:05.242Z,49.1
2018-07-28T07:16:06.020Z,49.1
2018-07-28T07:18:05.947Z,49.1
2018-07-28T07:20:10.889Z,49.3
2018-07-28T07:22:05.538Z,49.4
2018-07-28T07:24:05.199Z,49
2018-07-28T07:26:05.459Z,49.3
2018-07-28T07:28:05.120Z,49.3
2018-07-28T07:30:06.049Z,49.5
2018-07-28T07:32:08.330Z,49.7
2018-07-28T07:34:10.081Z,49.3
2018-07-28T07:36:05.871Z,49.3
2018-07-28T07:38:08.357Z,49.4
2018-07-28T07:40:05.024Z,49.4
2018-07-28T07:42:05.697Z,49.3
2018-07-28T07:44:05.420Z,49.3
2018-07-28T07:46:08.170Z,49.3
2018-07-28T07:48:08.376Z,49.2
2018-07-28T07:50:04.997Z,49.2
2018-07-28T07:52:05.678Z,49.4
2018-07-28T07:54:05.371Z,49.4
2018-07-28T07:56:05.098Z,49.4
2018-07-28T07:58:06.049Z,49.6
2018-07-28T08:00:05.934Z,49.6
2018-07-28T08:02:08.261Z,49.4
2018-07-28T08:04:05.943Z,49.4
2018-07-28T08:06:08.205Z,49.5
2018-07-28T08:08:05.922Z,49.5
2018-07-28T08:10:05.625Z,49.3
2018-07-28T08:12:05.968Z,49.5
2018-07-28T08:14:05.658Z,49.5
2018-07-28T08:16:05.332Z,49.1
2018-07-28T08:18:05.419Z,49.1
2018-07-28T08:20:05.096Z,49.3
2018-07-28T08:22:05.777Z,48.9
2018-07-28T08:24:05.541Z,48.6
2018-07-28T08:26:05.881Z,48.8
2018-07-28T08:28:05.642Z,48.7
2018-07-28T08:30:05.805Z,48.7
2018-07-28T08:32:07.486Z,48.8
2018-07-28T08:34:05.160Z,48.8
2018-07-28T08:36:05.851Z,48.8
2018-07-28T08:38:08.030Z,48.6
2018-07-28T08:40:08.545Z,48.6
2018-07-28T08:42:05.818Z,48.6
2018-07-28T08:44:05.503Z,48.6
2018-07-28T08:46:05.721Z,48.7
2018-07-28T08:48:08.371Z,48.7
2018-07-28T08:50:05.132Z,48.7
2018-07-28T08:52:05.814Z,48.8
2018-07-28T08:54:05.543Z,48.8
2018-07-28T08:56:07.760Z,48.8
2018-07-28T08:58:05.422Z,48.8
2018-07-28T09:00:05.189Z,48.9
2018-07-28T09:02:05.408Z,49.1
2018-07-28T09:04:05.150Z,49.3
2018-07-28T09:06:06.139Z,49.3
2018-07-28T09:08:05.864Z,49.1
2018-07-28T09:10:05.601Z,49.1
2018-07-28T09:12:07.849Z,49.1
2018-07-28T09:14:05.578Z,49.1
2018-07-28T09:16:05.265Z,48.8
2018-07-28T09:18:05.412Z,48.8
2018-07-28T09:20:07.680Z,48.9
2018-07-28T09:22:07.912Z,49
2018-07-28T09:24:05.639Z,49
2018-07-28T09:26:05.283Z,48.8
2018-07-28T09:28:05.999Z,48.9
2018-07-28T09:30:05.736Z,49.2
2018-07-28T09:32:10.994Z,48.6
2018-07-28T09:34:05.732Z,49.2
2018-07-28T09:36:07.984Z,48.9
2018-07-28T09:38:08.160Z,49
2018-07-28T09:40:05.838Z,49
2018-07-28T09:42:08.209Z,48.1
2018-07-28T09:44:05.367Z,48.5
2018-07-28T09:46:05.136Z,48.3
2018-07-28T09:48:05.863Z,48.2
2018-07-28T09:50:05.039Z,47.9
2018-07-28T09:52:05.269Z,47.8
2018-07-28T09:54:06.000Z,47.3
2018-07-28T09:56:08.342Z,47.5
2018-07-28T09:58:05.102Z,47.5
2018-07-28T10:00:05.663Z,47.3
2018-07-28T10:02:05.327Z,47.3
2018-07-28T10:04:05.064Z,47.2
2018-07-28T10:06:05.906Z,47.2
2018-07-28T10:08:05.662Z,46.5
2018-07-28T10:10:05.406Z,46.8
2018-07-28T10:12:05.067Z,46.8
2018-07-28T10:14:08.364Z,46.8
2018-07-28T10:16:05.191Z,46.6
2018-07-28T10:18:05.135Z,47
2018-07-28T10:20:05.818Z,46.5
2018-07-28T10:22:10.533Z,46.6
2018-07-28T10:24:07.839Z,46.7
2018-07-28T10:26:05.542Z,46.5
2018-07-28T10:28:05.234Z,46.8
2018-07-28T10:30:08.494Z,46.1
2018-07-28T10:32:05.464Z,46.1
2018-07-28T10:34:07.677Z,46.5
2018-07-28T10:36:05.596Z,46.5
2018-07-28T10:38:05.299Z,46.2
2018-07-28T10:40:13.625Z,46
2018-07-28T10:42:12.960Z,46
2018-07-28T10:44:05.616Z,46
2018-07-28T10:46:05.325Z,45.7
2018-07-28T10:48:06.086Z,45.9
2018-07-28T10:50:05.771Z,45.8
2018-07-28T10:52:07.621Z,45.7
2018-07-28T10:54:05.302Z,45.7
2018-07-28T10:56:08.491Z,46
2018-07-28T10:58:05.123Z,46
2018-07-28T11:00:05.598Z,46.1
2018-07-28T11:02:10.539Z,46
2018-07-28T11:04:05.311Z,46
2018-07-28T11:06:05.613Z,46.1
2018-07-28T11:08:08.358Z,46.4
2018-07-28T11:10:05.059Z,46.2
2018-07-28T11:12:05.717Z,46.3
2018-07-28T11:14:05.426Z,46.4
2018-07-28T11:16:05.124Z,46.4
2018-07-28T11:18:05.543Z,46.3
2018-07-28T11:20:05.447Z,46.4
2018-07-28T11:22:07.618Z,46.5
2018-07-28T11:24:07.844Z,46.2
2018-07-28T11:26:05.919Z,46.2
2018-07-28T11:28:05.021Z,45.7
2018-07-28T11:30:05.931Z,46.1
2018-07-28T11:32:13.221Z,45.4
2018-07-28T11:34:05.961Z,45.3
2018-07-28T11:36:08.204Z,45.8
2018-07-28T11:38:05.059Z,45.7
2018-07-28T11:40:05.729Z,46.1
2018-07-28T11:42:05.474Z,45.9
2018-07-28T11:44:07.778Z,46
2018-07-28T11:46:05.431Z,46
2018-07-28T11:48:07.756Z,45.7
2018-07-28T11:50:05.504Z,45.7
2018-07-28T11:52:05.208Z,45.9
2018-07-28T11:54:05.918Z,45.2
2018-07-28T11:56:08.068Z,44.9
2018-07-28T11:58:05.846Z,45
2018-07-28T12:00:05.825Z,45.2
2018-07-28T12:02:05.624Z,45.2
2018-07-28T12:04:07.829Z,45.4
2018-07-28T12:06:05.576Z,45.4
2018-07-28T12:08:05.627Z,45.4
2018-07-28T12:10:05.415Z,45.4
2018-07-28T12:12:05.192Z,45.4
2018-07-28T12:14:08.465Z,45.3
2018-07-28T12:16:07.713Z,45.3
2018-07-28T12:18:05.588Z,45.4
2018-07-28T12:20:05.453Z,45.3
2018-07-28T12:22:07.671Z,45.2
2018-07-28T12:24:05.624Z,45
2018-07-28T12:26:08.234Z,45
2018-07-28T12:28:05.927Z,45
2018-07-28T12:30:05.924Z,44.9
2018-07-28T12:32:05.600Z,44.9
2018-07-28T12:34:05.972Z,44.8
2018-07-28T12:36:05.723Z,44.9
2018-07-28T12:38:05.183Z,44.9
2018-07-28T12:40:08.434Z,44.8
2018-07-28T12:42:05.683Z,44.8
2018-07-28T12:44:05.376Z,44.8
2018-07-28T12:46:05.275Z,44.8
2018-07-28T12:48:05.939Z,45
2018-07-28T12:50:05.676Z,45.1
2018-07-28T12:52:05.341Z,44.9
2018-07-28T12:54:05.102Z,45.1
2018-07-28T12:56:05.753Z,45.2
2018-07-28T12:58:05.494Z,45.1
2018-07-28T13:00:07.735Z,45.1
2018-07-28T13:02:05.427Z,45.1
2018-07-28T13:04:07.618Z,45.1
2018-07-28T13:06:05.419Z,45.1
2018-07-28T13:08:05.119Z,45.3
2018-07-28T13:10:05.427Z,45.3
2018-07-28T13:12:05.331Z,45.2
2018-07-28T13:14:04.985Z,45.2
2018-07-28T13:16:05.639Z,45.2
2018-07-28T13:18:05.556Z,45.4
2018-07-28T13:20:05.222Z,45.2
2018-07-28T13:22:06.140Z,45.4
2018-07-28T13:24:05.453Z,45.3
2018-07-28T13:26:12.749Z,45
2018-07-28T13:28:05.497Z,45.1
2018-07-28T13:30:05.663Z,44.9
2018-07-28T13:32:05.387Z,44.9
2018-07-28T13:34:10.784Z,44.8
2018-07-28T13:36:05.613Z,44.7
2018-07-28T13:38:05.372Z,44.6
2018-07-28T13:40:07.738Z,44.5
2018-07-28T13:42:05.688Z,44.4
2018-07-28T13:44:05.054Z,44.5
2018-07-28T13:46:10.798Z,44.6
2018-07-28T13:48:05.471Z,44.6
2018-07-28T13:50:05.225Z,44.7
2018-07-28T13:52:10.938Z,45.1
2018-07-28T13:54:08.156Z,45.3
2018-07-28T13:56:08.436Z,45.3
2018-07-28T13:58:07.730Z,45.3
2018-07-28T14:00:05.540Z,45.3
2018-07-28T14:02:07.802Z,45.4
2018-07-28T14:04:08.041Z,45.4
2018-07-28T14:06:08.153Z,45.4
2018-07-28T14:08:05.199Z,45.3
2018-07-28T14:10:05.414Z,45.2
2018-07-28T14:12:07.595Z,45.4
2018-07-28T14:14:05.312Z,45.3
2018-07-28T14:16:08.054Z,45.2
2018-07-28T14:18:06.269Z,45.2
2018-07-28T14:20:05.792Z,45.2
2018-07-28T14:22:10.800Z,44.6
2018-07-28T14:24:08.022Z,44.8
2018-07-28T14:26:05.900Z,44.8
2018-07-28T14:28:05.753Z,44.7
2018-07-28T14:30:05.489Z,44.7
2018-07-28T14:32:06.185Z,44.6
2018-07-28T14:34:13.468Z,44.3
2018-07-28T14:36:07.658Z,44.5
2018-07-28T14:38:05.333Z,44.5
2018-07-28T14:40:09.556Z,44
2018-07-28T14:42:05.464Z,44
2018-07-28T14:44:06.138Z,44.2
2018-07-28T14:46:05.092Z,44.1
2018-07-28T14:48:05.442Z,44
2018-07-28T14:50:06.154Z,43.8
2018-07-28T14:52:05.466Z,43.8
2018-07-28T14:54:05.363Z,43.8
2018-07-28T14:56:05.034Z,43.8
2018-07-28T14:58:05.693Z,43.5
2018-07-28T15:00:05.395Z,43.5
2018-07-28T15:02:10.348Z,43.5
2018-07-28T15:04:05.246Z,43.5
2018-07-28T15:06:05.905Z,43.3
2018-07-28T15:08:05.745Z,43.5
2018-07-28T15:10:05.649Z,43.5
2018-07-28T15:12:08.003Z,43.4
2018-07-28T15:14:05.163Z,43.4
2018-07-28T15:16:05.381Z,43.4
2018-07-28T15:18:05.312Z,43.3
2018-07-28T15:20:06.003Z,43.2
2018-07-28T15:22:05.923Z,43.4
2018-07-28T15:24:10.242Z,43.2
2018-07-28T15:26:06.060Z,43.2
2018-07-28T15:28:05.715Z,43.4
2018-07-28T15:30:05.419Z,43.4
2018-07-28T15:32:05.117Z,43.1
2018-07-28T15:34:05.871Z,43.2
2018-07-28T15:36:05.579Z,43.2
2018-07-28T15:38:05.323Z,43.5
2018-07-28T15:40:06.002Z,43.6
2018-07-28T15:42:08.019Z,43.7
2018-07-28T15:44:05.731Z,43.8
2018-07-28T15:46:05.624Z,43.6
2018-07-28T15:48:08.483Z,44.1
2018-07-28T15:50:05.399Z,44.1
2018-07-28T15:52:05.651Z,44
2018-07-28T15:54:05.326Z,43.6
2018-07-28T15:56:05.673Z,44
2018-07-28T15:58:10.172Z,44.2
2018-07-28T16:00:05.846Z,43.9
2018-07-28T16:02:10.188Z,44
2018-07-28T16:04:06.910Z,44
2018-07-28T16:06:05.309Z,44.2
2018-07-28T16:08:05.204Z,44
2018-07-28T16:10:05.948Z,44.3
2018-07-28T16:12:05.643Z,43.7
2018-07-28T16:14:05.397Z,44
2018-07-28T16:16:05.141Z,44.2
2018-07-28T16:18:05.577Z,44.5
2018-07-28T16:20:06.077Z,44.1
2018-07-28T16:22:11.085Z,44.2
2018-07-28T16:24:05.818Z,44.2
2018-07-28T16:26:05.477Z,43.9
2018-07-28T16:28:08.156Z,44.1
2018-07-28T16:30:05.933Z,44
2018-07-28T16:32:13.153Z,44
2018-07-28T16:34:05.859Z,44
2018-07-28T16:36:05.571Z,43.9
2018-07-28T16:38:05.560Z,43.7
2018-07-28T16:40:05.599Z,43.3
2018-07-28T16:42:10.407Z,44
2018-07-28T16:44:10.173Z,43.8
2018-07-28T16:46:05.440Z,43.8
2018-07-28T16:48:10.128Z,44.4
2018-07-28T16:50:05.020Z,43.7
2018-07-28T16:52:13.434Z,43.5
2018-07-28T16:54:10.350Z,43.4
2018-07-28T16:56:05.756Z,43.2
2018-07-28T16:58:05.913Z,43.1
2018-07-28T17:00:05.887Z,43
2018-07-28T17:02:05.683Z,43.1
2018-07-28T17:04:05.784Z,42.9
2018-07-28T17:06:06.209Z,43.1
2018-07-28T17:08:05.940Z,43
2018-07-28T17:10:05.713Z,42.9
2018-07-28T17:12:05.959Z,43.2
2018-07-28T17:14:05.964Z,43.1
2018-07-28T17:16:08.559Z,43.1
2018-07-28T17:18:10.456Z,43.1
2018-07-28T17:20:08.426Z,42.9
2018-07-28T17:22:05.613Z,42.9
2018-07-28T17:24:07.870Z,42.3
2018-07-28T17:26:05.600Z,42.4
2018-07-28T17:28:06.839Z,42.4
2018-07-28T17:30:05.503Z,42.4
2018-07-28T17:32:05.238Z,42.2
2018-07-28T17:34:05.919Z,41.5
2018-07-28T17:36:05.835Z,41.4
2018-07-28T17:38:05.627Z,42
2018-07-28T17:40:05.554Z,41.8
2018-07-28T17:42:08.014Z,41.3
2018-07-28T17:44:05.800Z,41.3
2018-07-28T17:46:08.058Z,41.5
2018-07-28T17:48:05.504Z,41.6
2018-07-28T17:50:07.761Z,41.4
2018-07-28T17:52:05.033Z,41.5
2018-07-28T17:54:05.511Z,41.5
2018-07-28T17:56:07.091Z,41.5
2018-07-28T17:58:05.865Z,41.3
2018-07-28T18:00:05.826Z,41.2
2018-07-28T18:02:05.058Z,41.2
2018-07-28T18:04:05.750Z,41
2018-07-28T18:06:05.454Z,41.2
2018-07-28T18:08:05.158Z,40.9
2018-07-28T18:10:05.839Z,40.8
2018-07-28T18:12:07.587Z,40.5
2018-07-28T18:14:05.308Z,40.6
2018-07-28T18:16:07.558Z,41.1
2018-07-28T18:18:05.973Z,41.1
2018-07-28T18:20:05.711Z,41.2
2018-07-28T18:22:05.449Z,40.9
2018-07-28T18:24:07.667Z,41.1
2018-07-28T18:26:06.812Z,41.1
2018-07-28T18:28:05.414Z,40.8
2018-07-28T18:30:05.534Z,40.4
2018-07-28T18:32:05.276Z,40.9
2018-07-28T18:34:12.842Z,41
2018-07-28T18:36:05.076Z,40.9
2018-07-28T18:38:05.846Z,41
2018-07-28T18:40:05.654Z,40.8
2018-07-28T18:42:05.393Z,40.4
2018-07-28T18:44:05.090Z,40.7
2018-07-28T18:46:05.844Z,40.6
2018-07-28T18:48:05.550Z,40.6
2018-07-28T18:50:10.853Z,40.3
2018-07-28T18:52:05.494Z,40.4
2018-07-28T18:54:05.273Z,40.4
2018-07-28T18:56:06.018Z,40.2
2018-07-28T18:58:08.319Z,40.4
2018-07-28T19:00:05.090Z,40.3
2018-07-28T19:02:07.581Z,40.4
2018-07-28T19:04:05.294Z,40.4
2018-07-28T19:06:06.001Z,40.2
2018-07-28T19:08:10.318Z,39.8
2018-07-28T19:10:05.526Z,39.8
2018-07-28T19:12:05.220Z,40.1
2018-07-28T19:14:05.925Z,40.1
2018-07-28T19:16:05.580Z,39.5
2018-07-28T19:18:10.831Z,39.6
2018-07-28T19:20:05.885Z,39.4
2018-07-28T19:22:05.935Z,39.7
2018-07-28T19:24:05.184Z,39.6
2018-07-28T19:26:08.414Z,39.4
2018-07-28T19:28:07.827Z,39.5
2018-07-28T19:30:05.618Z,39.5
2018-07-28T19:32:05.545Z,39.5
2018-07-28T19:34:08.309Z,39.2
2018-07-28T19:36:06.419Z,39.2
2018-07-28T19:38:15.954Z,39.5
2018-07-28T19:40:05.204Z,39.5
2018-07-28T19:42:05.871Z,39.4
2018-07-28T19:44:06.954Z,39.1
2018-07-28T19:46:13.204Z,39.1
2018-07-28T19:48:05.986Z,39.2
2018-07-28T19:50:11.031Z,38.9
2018-07-28T19:52:05.959Z,38.8
2018-07-28T19:54:05.919Z,39.1
2018-07-28T19:56:05.891Z,39
2018-07-28T19:58:05.753Z,38.8
2018-07-28T20:00:05.473Z,39.1
2018-07-28T20:02:05.121Z,38.6
2018-07-28T20:04:05.356Z,38.8
2018-07-28T20:06:05.026Z,38.5
2018-07-28T20:08:05.693Z,38
2018-07-28T20:10:07.941Z,38.4
2018-07-28T20:12:05.211Z,38.3
2018-07-28T20:14:06.173Z,38.2
2018-07-28T20:16:05.837Z,38.1
2018-07-28T20:18:08.259Z,37.8
2018-07-28T20:20:05.464Z,37.8
2018-07-28T20:22:05.266Z,37.7
2018-07-28T20:24:05.939Z,37.5
2018-07-28T20:26:05.606Z,37.7
2018-07-28T20:28:07.959Z,37.9
2018-07-28T20:30:05.674Z,37.7
2018-07-28T20:32:08.011Z,37.7
2018-07-28T20:34:05.805Z,37.7
2018-07-28T20:36:05.774Z,38
2018-07-28T20:38:05.081Z,38
2018-07-28T20:40:08.372Z,37.8
2018-07-28T20:42:05.149Z,37.9
2018-07-28T20:44:13.454Z,37.8
2018-07-28T20:46:05.167Z,37.8
2018-07-28T20:48:08.554Z,37.7
2018-07-28T20:50:05.292Z,37.8
2018-07-28T20:52:07.676Z,37.8
2018-07-28T20:54:05.416Z,37.8
2018-07-28T20:56:05.081Z,37.8
2018-07-28T20:58:07.824Z,37.6
2018-07-28T21:00:05.980Z,37.6
2018-07-28T21:02:05.674Z,37.3
2018-07-28T21:04:05.374Z,37.3
2018-07-28T21:06:05.090Z,37.1
2018-07-28T21:08:08.287Z,37.4
2018-07-28T21:10:06.067Z,37.2
2018-07-28T21:12:06.032Z,37.4
2018-07-28T21:14:05.706Z,37.4
2018-07-28T21:16:10.460Z,37.1
2018-07-28T21:18:05.338Z,37
2018-07-28T21:20:05.071Z,37.1
2018-07-28T21:22:07.775Z,37
2018-07-28T21:24:05.504Z,37
2018-07-28T21:26:07.711Z,37
2018-07-28T21:28:06.124Z,37
2018-07-28T21:30:05.226Z,36.9
2018-07-28T21:32:05.550Z,36.8
2018-07-28T21:34:08.319Z,36.7
2018-07-28T21:36:06.008Z,36.7
2018-07-28T21:38:05.701Z,36.8
2018-07-28T21:40:05.409Z,36.9
2018-07-28T21:42:05.158Z,36.7
2018-07-28T21:44:05.892Z,36.9
2018-07-28T21:46:05.585Z,37
2018-07-28T21:48:05.248Z,37
2018-07-28T21:50:05.445Z,36.8
2018-07-28T21:52:05.180Z,36.8
2018-07-28T21:54:05.874Z,37
2018-07-28T21:56:05.515Z,36.9
2018-07-28T21:58:05.250Z,36.9
2018-07-28T22:00:05.933Z,37
2018-07-28T22:02:05.175Z,36.9
2018-07-28T22:04:06.825Z,37
2018-07-28T22:06:08.037Z,36.9
2018-07-28T22:08:08.230Z,37
2018-07-28T22:10:05.968Z,36.9
2018-07-28T22:12:05.225Z,36.9
2018-07-28T22:14:05.903Z,36.9
2018-07-28T22:16:07.707Z,37.1
2018-07-28T22:18:05.926Z,37.1
2018-07-28T22:20:05.641Z,37
2018-07-28T22:22:08.107Z,37
2018-07-28T22:24:05.762Z,37
2018-07-28T22:26:08.179Z,37
2018-07-28T22:28:05.930Z,37
2018-07-28T22:30:05.701Z,37
2018-07-28T22:32:05.346Z,37.1
2018-07-28T22:34:05.050Z,37.1
2018-07-28T22:36:05.790Z,37
2018-07-28T22:38:10.540Z,36.8
2018-07-28T22:40:05.849Z,36.9
2018-07-28T22:42:05.555Z,36.9
2018-07-28T22:44:05.241Z,37
2018-07-28T22:46:08.502Z,37.1
2018-07-28T22:48:05.276Z,37.1
2018-07-28T22:50:05.006Z,37.1
2018-07-28T22:52:05.741Z,37.2
2018-07-28T22:54:05.947Z,37.1
2018-07-28T22:56:08.161Z,37.3
2018-07-28T22:58:05.879Z,37.3
2018-07-28T23:00:05.639Z,37.2
2018-07-28T23:02:05.427Z,37.2
2018-07-28T23:04:07.740Z,37.2
2018-07-28T23:06:05.437Z,37.2
2018-07-28T23:08:13.219Z,37.3
2018-07-28T23:10:06.188Z,37.2
2018-07-28T23:12:05.385Z,37.3
2018-07-28T23:14:10.154Z,37
2018-07-28T23:16:05.837Z,37
2018-07-28T23:18:05.702Z,36.7
2018-07-28T23:20:05.907Z,36.3
2018-07-28T23:22:05.635Z,35.9
2018-07-28T23:24:05.309Z,35.8
2018-07-28T23:26:05.651Z,35.8
2018-07-28T23:28:05.538Z,35.6
2018-07-28T23:30:05.432Z,35.5
2018-07-28T23:32:05.108Z,35.5
2018-07-28T23:34:05.327Z,35.3
2018-07-28T23:36:05.022Z,35.1
2018-07-28T23:38:05.736Z,35.2
2018-07-28T23:40:05.428Z,35
2018-07-28T23:42:05.137Z,34.9
2018-07-28T23:44:05.828Z,35
2018-07-28T23:46:05.057Z,34.7
2018-07-28T23:48:05.730Z,34.8
2018-07-28T23:50:06.473Z,34.7
2018-07-28T23:52:12.861Z,34.3
2018-07-28T23:54:10.669Z,34.2
2018-07-28T23:56:05.441Z,34.2
2018-07-28T23:58:05.170Z,34.5
